DNO789 LGMK-LGAV
Flight info
| Callsign | DNO789 |
|---|---|
| Flight time | 0h 23m |
| Altitude | 12000 |
| Route | VARIX |
| Aircraft | A320/M-SDE3FGHIRWY/LB1 |
Departure
| Time | 2026-05-04 13:11 |
|---|---|
| Airport | Mykonos Island National Airport (LGMK) |
Arrival
| Time | 2026-05-04 13:34 |
|---|---|
| Airport | Athens Eleftherios Venizelos International Airport (LGAV) |
| Time | Latitude | Longitude | Altitude | Speed | Heading |
|---|---|---|---|---|---|
| 2026-05-04 12:56 | 37.43464 | 25.34662 | 405 ft | 0 kts | 251° |
| 2026-05-04 13:04 | 37.43469 | 25.34680 | 434 ft | 4 kts | 243° |
| 2026-05-04 13:04 | 37.43485 | 25.34706 | 397 ft | 4 kts | 209° |
| 2026-05-04 13:04 | 37.43504 | 25.34711 | 404 ft | 1 kts | 161° |
| 2026-05-04 13:05 | 37.43505 | 25.34711 | 404 ft | 0 kts | 161° |
| 2026-05-04 13:07 | 37.43504 | 25.34711 | 404 ft | 1 kts | 161° |
| 2026-05-04 13:07 | 37.43479 | 25.34722 | 408 ft | 6 kts | 163° |
| 2026-05-04 13:08 | 37.43434 | 25.34751 | 408 ft | 9 kts | 136° |
| 2026-05-04 13:08 | 37.43403 | 25.34819 | 410 ft | 9 kts | 117° |
| 2026-05-04 13:08 | 37.43323 | 25.34906 | 412 ft | 25 kts | 159° |
| 2026-05-04 13:08 | 37.43152 | 25.34982 | 411 ft | 27 kts | 160° |
| 2026-05-04 13:09 | 37.42976 | 25.35059 | 414 ft | 26 kts | 160° |
| 2026-05-04 13:09 | 37.42832 | 25.35126 | 411 ft | 22 kts | 160° |
| 2026-05-04 13:09 | 37.42768 | 25.35177 | 410 ft | 12 kts | 144° |
| 2026-05-04 13:09 | 37.42742 | 25.35153 | 410 ft | 5 kts | 338° |
| 2026-05-04 13:10 | 37.42800 | 25.35137 | 411 ft | 12 kts | 342° |
| 2026-05-04 13:10 | 37.42805 | 25.35135 | 410 ft | 0 kts | 341° |
| 2026-05-04 13:10 | 37.42896 | 25.35096 | 413 ft | 45 kts | 341° |
| 2026-05-04 13:11 | 37.43416 | 25.34865 | 411 ft | 111 kts | 341° |
| 2026-05-04 13:11 | 37.44241 | 25.34492 | 811 ft | 124 kts | 341° |
| 2026-05-04 13:11 | 37.45072 | 25.34127 | 1437 ft | 127 kts | 340° |
| 2026-05-04 13:11 | 37.45896 | 25.33763 | 2037 ft | 127 kts | 339° |
| 2026-05-04 13:12 | 37.46705 | 25.33179 | 2379 ft | 145 kts | 320° |
| 2026-05-04 13:12 | 37.47313 | 25.32004 | 2464 ft | 177 kts | 291° |
| 2026-05-04 13:12 | 37.47499 | 25.30401 | 2882 ft | 191 kts | 282° |
| 2026-05-04 13:12 | 37.47672 | 25.28649 | 3190 ft | 215 kts | 281° |
| 2026-05-04 13:13 | 37.47869 | 25.26674 | 3594 ft | 239 kts | 281° |
| 2026-05-04 13:13 | 37.48081 | 25.24527 | 4306 ft | 250 kts | 280° |
| 2026-05-04 13:13 | 37.48281 | 25.22349 | 5251 ft | 252 kts | 276° |
| 2026-05-04 13:13 | 37.48020 | 25.20149 | 6142 ft | 263 kts | 252° |
| 2026-05-04 13:14 | 37.46982 | 25.18200 | 7010 ft | 274 kts | 233° |
| 2026-05-04 13:14 | 37.45688 | 25.16396 | 7822 ft | 279 kts | 232° |
| 2026-05-04 13:14 | 37.44389 | 25.14590 | 8582 ft | 285 kts | 232° |
| 2026-05-04 13:14 | 37.43045 | 25.12719 | 9351 ft | 291 kts | 232° |
| 2026-05-04 13:15 | 37.41673 | 25.10805 | 10108 ft | 296 kts | 232° |
| 2026-05-04 13:15 | 37.40284 | 25.08813 | 10525 ft | 312 kts | 236° |
| 2026-05-04 13:15 | 37.39086 | 25.06438 | 10714 ft | 331 kts | 247° |
| 2026-05-04 13:15 | 37.38233 | 25.03692 | 11102 ft | 341 kts | 257° |
| 2026-05-04 13:16 | 37.37768 | 25.00754 | 11711 ft | 342 kts | 269° |
| 2026-05-04 13:16 | 37.37892 | 24.97772 | 12049 ft | 341 kts | 284° |
| 2026-05-04 13:16 | 37.38566 | 24.94937 | 12136 ft | 351 kts | 291° |
| 2026-05-04 13:16 | 37.39374 | 24.91966 | 12138 ft | 364 kts | 291° |
| 2026-05-04 13:17 | 37.40210 | 24.88936 | 12138 ft | 367 kts | 291° |
| 2026-05-04 13:17 | 37.41041 | 24.85897 | 12138 ft | 368 kts | 291° |
| 2026-05-04 13:17 | 37.41863 | 24.82841 | 12137 ft | 367 kts | 291° |
| 2026-05-04 13:17 | 37.42670 | 24.79794 | 12137 ft | 367 kts | 291° |
| 2026-05-04 13:18 | 37.43474 | 24.76737 | 12131 ft | 368 kts | 291° |
| 2026-05-04 13:18 | 37.44274 | 24.73684 | 12135 ft | 368 kts | 291° |
| 2026-05-04 13:18 | 37.45059 | 24.70660 | 12132 ft | 368 kts | 290° |
| 2026-05-04 13:18 | 37.45849 | 24.67592 | 12133 ft | 368 kts | 290° |
| 2026-05-04 13:19 | 37.46634 | 24.64529 | 12130 ft | 368 kts | 290° |
| 2026-05-04 13:19 | 37.47162 | 24.62458 | 12128 ft | 368 kts | 290° |
| 2026-05-04 13:19 | 37.48199 | 24.58399 | 12130 ft | 368 kts | 290° |
| 2026-05-04 13:19 | 37.48984 | 24.55320 | 12135 ft | 368 kts | 290° |
| 2026-05-04 13:20 | 37.49767 | 24.52254 | 12132 ft | 367 kts | 290° |
| 2026-05-04 13:20 | 37.50530 | 24.49262 | 12070 ft | 349 kts | 290° |
| 2026-05-04 13:20 | 37.51258 | 24.46412 | 11930 ft | 334 kts | 290° |
| 2026-05-04 13:20 | 37.51959 | 24.43676 | 11480 ft | 330 kts | 291° |
| 2026-05-04 13:21 | 37.52663 | 24.40927 | 10980 ft | 329 kts | 290° |
| 2026-05-04 13:21 | 37.53364 | 24.38188 | 10453 ft | 325 kts | 291° |
| 2026-05-04 13:21 | 37.54044 | 24.35524 | 9911 ft | 313 kts | 291° |
| 2026-05-04 13:21 | 37.54698 | 24.32961 | 9319 ft | 302 kts | 291° |
| 2026-05-04 13:22 | 37.55324 | 24.30495 | 8714 ft | 293 kts | 291° |
| 2026-05-04 13:22 | 37.55936 | 24.28079 | 8134 ft | 285 kts | 291° |
| 2026-05-04 13:22 | 37.56530 | 24.25732 | 7542 ft | 278 kts | 290° |
| 2026-05-04 13:22 | 37.57112 | 24.23430 | 6988 ft | 271 kts | 290° |
| 2026-05-04 13:23 | 37.57665 | 24.21234 | 6614 ft | 259 kts | 290° |
| 2026-05-04 13:23 | 37.58204 | 24.19101 | 6231 ft | 252 kts | 290° |
| 2026-05-04 13:23 | 37.58736 | 24.17008 | 5844 ft | 250 kts | 290° |
| 2026-05-04 13:23 | 37.59269 | 24.14916 | 5459 ft | 250 kts | 290° |
| 2026-05-04 13:24 | 37.59804 | 24.12815 | 5119 ft | 251 kts | 290° |
| 2026-05-04 13:24 | 37.60337 | 24.10709 | 4800 ft | 250 kts | 290° |
| 2026-05-04 13:24 | 37.60859 | 24.08636 | 4461 ft | 250 kts | 290° |
| 2026-05-04 13:25 | 37.61888 | 24.04526 | 4098 ft | 237 kts | 290° |
| 2026-05-04 13:25 | 37.62380 | 24.02571 | 4004 ft | 232 kts | 290° |
| 2026-05-04 13:25 | 37.62876 | 24.00603 | 4014 ft | 243 kts | 290° |
| 2026-05-04 13:25 | 37.63400 | 23.98544 | 4008 ft | 251 kts | 291° |
| 2026-05-04 13:26 | 37.64207 | 23.96595 | 4009 ft | 251 kts | 303° |
| 2026-05-04 13:26 | 37.64818 | 23.95351 | 4008 ft | 251 kts | 303° |
| 2026-05-04 13:26 | 37.65741 | 23.93465 | 4006 ft | 250 kts | 303° |
| 2026-05-04 13:26 | 37.66907 | 23.91067 | 4003 ft | 232 kts | 303° |
| 2026-05-04 13:27 | 37.67467 | 23.89915 | 4006 ft | 223 kts | 303° |
| 2026-05-04 13:27 | 37.68278 | 23.88253 | 4006 ft | 222 kts | 303° |
| 2026-05-04 13:27 | 37.69134 | 23.86701 | 4006 ft | 209 kts | 316° |
| 2026-05-04 13:27 | 37.70303 | 23.85760 | 4003 ft | 193 kts | 341° |
| 2026-05-04 13:28 | 37.71586 | 23.85396 | 4007 ft | 190 kts | 347° |
| 2026-05-04 13:28 | 37.72826 | 23.85079 | 4032 ft | 173 kts | 347° |
| 2026-05-04 13:28 | 37.73958 | 23.84792 | 4003 ft | 158 kts | 347° |
| 2026-05-04 13:28 | 37.74985 | 23.84532 | 3992 ft | 143 kts | 347° |
| 2026-05-04 13:29 | 37.75952 | 23.84286 | 4000 ft | 141 kts | 347° |
| 2026-05-04 13:29 | 37.76914 | 23.84039 | 4005 ft | 141 kts | 347° |
| 2026-05-04 13:29 | 37.77865 | 23.83794 | 4005 ft | 143 kts | 347° |
| 2026-05-04 13:29 | 37.78874 | 23.83535 | 4009 ft | 150 kts | 346° |
| 2026-05-04 13:30 | 37.79913 | 23.83347 | 4005 ft | 150 kts | 359° |
| 2026-05-04 13:30 | 37.80905 | 23.83627 | 3982 ft | 148 kts | 28° |
| 2026-05-04 13:30 | 37.81744 | 23.84368 | 4006 ft | 147 kts | 30° |
| 2026-05-04 13:30 | 37.82591 | 23.85119 | 3807 ft | 148 kts | 32° |
| 2026-05-04 13:31 | 37.83394 | 23.85899 | 3573 ft | 142 kts | 35° |
| 2026-05-04 13:31 | 37.84165 | 23.86661 | 3378 ft | 142 kts | 32° |
| 2026-05-04 13:31 | 37.84946 | 23.87432 | 3108 ft | 141 kts | 33° |
| 2026-05-04 13:31 | 37.85727 | 23.88185 | 2800 ft | 140 kts | 32° |
| 2026-05-04 13:32 | 37.86508 | 23.88872 | 2458 ft | 137 kts | 31° |
| 2026-05-04 13:32 | 37.87287 | 23.89568 | 2105 ft | 136 kts | 34° |
| 2026-05-04 13:32 | 37.88056 | 23.90279 | 1719 ft | 137 kts | 34° |
| 2026-05-04 13:32 | 37.88798 | 23.91009 | 1330 ft | 136 kts | 32° |
| 2026-05-04 13:33 | 37.89566 | 23.91710 | 994 ft | 136 kts | 34° |
| 2026-05-04 13:33 | 37.90344 | 23.92384 | 768 ft | 134 kts | 37° |
| 2026-05-04 13:33 | 37.91088 | 23.93085 | 570 ft | 136 kts | 42° |
| 2026-05-04 13:33 | 37.91821 | 23.93822 | 428 ft | 135 kts | 39° |
| 2026-05-04 13:34 | 37.92576 | 23.94529 | 332 ft | 135 kts | 39° |
| 2026-05-04 13:34 | 37.93246 | 23.95180 | 294 ft | 102 kts | 37° |
| 2026-05-04 13:34 | 37.93644 | 23.95555 | 280 ft | 29 kts | 37° |
| 2026-05-04 13:34 | 37.93768 | 23.95555 | 284 ft | 0 kts | 306° |
| 2026-05-04 13:35 | 37.93775 | 23.95542 | 286 ft | 5 kts | 306° |
| 2026-05-04 13:36 | 37.93778 | 23.95478 | 294 ft | 9 kts | 246° |
| 2026-05-04 13:36 | 37.93754 | 23.95406 | 297 ft | 8 kts | 246° |
| 2026-05-04 13:36 | 37.93712 | 23.95341 | 297 ft | 12 kts | 218° |
| 2026-05-04 13:36 | 37.93651 | 23.95237 | 299 ft | 16 kts | 273° |
| 2026-05-04 13:37 | 37.93705 | 23.95130 | 300 ft | 12 kts | 308° |
| 2026-05-04 13:37 | 37.93777 | 23.95129 | 302 ft | 10 kts | 33° |
| 2026-05-04 13:37 | 37.93813 | 23.95098 | 300 ft | 6 kts | 307° |
| 2026-05-04 13:37 | 37.93835 | 23.95062 | 301 ft | 0 kts | 308° |
| 2026-05-04 13:38 | 37.93836 | 23.95061 | 301 ft | 0 kts | 308° |